Time;durP1;ratioP1;P1;durP2;ratioP2;P2;SDS_P1;SDS_P2;PMS_P1;PMS_P2;Temp;Humidity;BMP_temperature;BMP_pressure;BME280_temperature;BME280_humidity;BME280_pressure;Samples;Min_cycle;Max_cycle;Signal;HPM_P1;HPM_P2
2023/06/09 00:02:33;;;;;;;9.90;6.78;;;;;;;;;;10132914;28;20117;-67
2023/06/09 00:07:33;;;;;;;12.85;7.50;;;;;;;;;;10134677;28;20042;-70
2023/06/09 00:12:30;;;;;;;11.75;8.27;;;;;;;;;;10140792;28;20058;-70
2023/06/09 00:17:26;;;;;;;9.68;7.35;;;;;;;;;;10122198;28;20112;-69
2023/06/09 00:22:23;;;;;;;16.17;6.88;;;;;;;;;;10124184;28;20043;-70
2023/06/09 00:27:20;;;;;;;10.27;6.72;;;;;;;;;;10108442;28;20042;-67
2023/06/09 00:32:16;;;;;;;11.05;6.90;;;;;;;;;;10118150;28;20151;-67
2023/06/09 00:37:12;;;;;;;10.77;7.45;;;;;;;;;;10121152;28;20061;-65
2023/06/09 00:42:10;;;;;;;9.52;6.90;;;;;;;;;;10122771;28;20047;-65
2023/06/09 00:47:07;;;;;;;9.25;6.82;;;;;;;;;;10117896;28;20464;-65
2023/06/09 00:52:04;;;;;;;10.93;6.90;;;;;;;;;;10118615;28;20045;-65
2023/06/09 00:57:01;;;;;;;10.05;7.00;;;;;;;;;;10115409;28;20516;-66
2023/06/09 01:01:57;;;;;;;12.40;7.10;;;;;;;;;;10115230;28;20508;-69
2023/06/09 01:07:00;;;;;;;8.77;7.05;;;;;;;;;;10113214;28;20109;-69
2023/06/09 01:12:02;;;;;;;10.30;7.45;;;;;;;;;;10118261;28;20043;-69
2023/06/09 01:17:01;;;;;;;11.38;7.32;;;;;;;;;;10118326;28;20074;-69
2023/06/09 01:22:03;;;;;;;10.02;8.00;;;;;;;;;;10121004;28;20536;-69
2023/06/09 01:27:01;;;;;;;10.67;7.53;;;;;;;;;;10109544;28;20081;-69
2023/06/09 01:31:59;;;;;;;11.68;7.47;;;;;;;;;;10132546;28;20105;-70
2023/06/09 01:36:55;;;;;;;11.32;7.10;;;;;;;;;;10124178;28;20050;-68
2023/06/09 01:41:52;;;;;;;9.65;7.50;;;;;;;;;;10118934;28;20085;-68
2023/06/09 01:46:48;;;;;;;11.68;7.57;;;;;;;;;;10092657;28;20118;-68
2023/06/09 01:51:52;;;;;;;11.70;7.75;;;;;;;;;;10118583;28;20054;-67
2023/06/09 01:57:02;;;;;;;11.40;7.70;;;;;;;;;;10124844;28;20141;-69
2023/06/09 02:02:01;;;;;;;10.27;7.43;;;;;;;;;;10087644;28;20114;-69
2023/06/09 02:06:58;;;;;;;13.02;9.25;;;;;;;;;;10106609;28;20476;-69
2023/06/09 02:11:54;;;;;;;12.40;8.50;;;;;;;;;;10115083;28;20053;-68
2023/06/09 02:16:53;;;;;;;12.13;7.80;;;;;;;;;;10119603;28;20055;-68
2023/06/09 02:21:52;;;;;;;12.20;8.48;;;;;;;;;;10125198;28;20147;-69
2023/06/09 02:26:50;;;;;;;12.85;8.73;;;;;;;;;;10123085;28;20051;-68
2023/06/09 02:31:46;;;;;;;17.33;9.80;;;;;;;;;;10127818;28;20505;-69
2023/06/09 02:36:44;;;;;;;13.88;8.88;;;;;;;;;;10119095;28;20504;-69
2023/06/09 02:41:41;;;;;;;12.80;8.95;;;;;;;;;;10128286;28;20074;-69
2023/06/09 02:46:39;;;;;;;15.60;9.20;;;;;;;;;;10119914;28;20866;-70
2023/06/09 02:51:36;;;;;;;15.70;9.10;;;;;;;;;;10121981;28;20050;-68
2023/06/09 02:56:32;;;;;;;16.92;9.32;;;;;;;;;;10113569;28;20509;-69
2023/06/09 03:01:35;;;;;;;16.58;10.55;;;;;;;;;;10129594;28;20057;-69
2023/06/09 03:06:33;;;;;;;14.45;9.05;;;;;;;;;;10120804;28;20504;-69
2023/06/09 03:11:29;;;;;;;13.05;9.02;;;;;;;;;;10107859;28;20682;-67
2023/06/09 03:16:27;;;;;;;12.52;9.77;;;;;;;;;;10114270;28;20066;-67
2023/06/09 03:21:24;;;;;;;12.68;8.55;;;;;;;;;;10115967;28;20109;-67
2023/06/09 03:26:20;;;;;;;12.65;9.43;;;;;;;;;;10130568;28;20646;-66
2023/06/09 03:31:17;;;;;;;12.55;8.68;;;;;;;;;;10125024;28;20057;-66
2023/06/09 03:36:14;;;;;;;13.70;8.10;;;;;;;;;;10124143;28;20042;-67
2023/06/09 03:41:10;;;;;;;12.07;8.57;;;;;;;;;;10118342;28;20448;-67
2023/06/09 03:46:07;;;;;;;17.65;8.52;;;;;;;;;;10115203;28;20054;-67
2023/06/09 03:51:03;;;;;;;12.82;8.50;;;;;;;;;;10112085;28;20054;-67
2023/06/09 03:55:59;;;;;;;12.60;8.00;;;;;;;;;;10108215;28;20046;-67
2023/06/09 04:00:56;;;;;;;11.65;7.78;;;;;;;;;;10118237;28;20046;-66
2023/06/09 04:05:53;;;;;;;13.50;8.35;;;;;;;;;;10116171;28;20043;-66
2023/06/09 04:10:49;;;;;;;12.68;7.82;;;;;;;;;;10123810;28;20058;-66
2023/06/09 04:15:46;;;;;;;12.18;8.60;;;;;;;;;;10129800;28;20081;-66
2023/06/09 04:20:42;;;;;;;10.63;8.15;;;;;;;;;;10127151;28;20089;-65
2023/06/09 04:25:39;;;;;;;12.50;8.27;;;;;;;;;;10111468;28;20086;-67
2023/06/09 04:30:37;;;;;;;13.13;8.55;;;;;;;;;;10109915;28;20046;-68
2023/06/09 04:35:34;;;;;;;13.02;8.93;;;;;;;;;;10120404;28;20074;-72
2023/06/09 04:40:37;;;;;;;12.13;8.93;;;;;;;;;;10107420;28;20047;-71
2023/06/09 04:45:34;;;;;;;11.60;9.40;;;;;;;;;;10098007;28;20657;-69
2023/06/09 04:50:35;;;;;;;9.70;8.55;;;;;;;;;;10113817;28;20083;-71
2023/06/09 04:55:35;;;;;;;14.23;8.15;;;;;;;;;;10104513;28;20062;-71
2023/06/09 05:00:31;;;;;;;12.70;8.50;;;;;;;;;;10126719;28;20058;-71
2023/06/09 05:05:40;;;;;;;14.13;8.88;;;;;;;;;;10098565;28;20112;-72
2023/06/09 05:10:53;;;;;;;11.70;7.78;;;;;;;;;;10098546;28;20149;-72
2023/06/09 05:16:21;;;;;;;16.65;9.15;;;;;;;;;;10113851;28;20039;-71
2023/06/09 05:21:21;;;;;;;11.23;8.13;;;;;;;;;;10102655;28;20043;-69
2023/06/09 05:26:18;;;;;;;8.70;7.57;;;;;;;;;;10100663;28;20054;-70
2023/06/09 05:31:16;;;;;;;13.73;8.05;;;;;;;;;;10104880;28;20140;-70
2023/06/09 05:36:13;;;;;;;13.18;7.07;;;;;;;;;;10105849;28;20927;-69
2023/06/09 05:41:11;;;;;;;12.48;8.48;;;;;;;;;;10107319;28;20053;-70
2023/06/09 05:46:07;;;;;;;11.70;8.35;;;;;;;;;;10109194;28;20504;-70
2023/06/09 05:51:03;;;;;;;11.07;7.60;;;;;;;;;;10103099;28;20062;-70
2023/06/09 05:56:00;;;;;;;12.23;7.47;;;;;;;;;;10103484;28;20101;-70
2023/06/09 06:00:57;;;;;;;8.90;7.28;;;;;;;;;;10103571;28;20536;-70
2023/06/09 06:05:54;;;;;;;10.70;6.95;;;;;;;;;;10093836;28;20097;-69
2023/06/09 06:10:51;;;;;;;15.38;8.77;;;;;;;;;;10101894;28;20106;-69
2023/06/09 06:15:47;;;;;;;10.35;8.30;;;;;;;;;;10102254;28;20564;-69
2023/06/09 06:20:44;;;;;;;11.90;7.57;;;;;;;;;;10110744;28;20058;-69
2023/06/09 06:25:43;;;;;;;10.55;8.10;;;;;;;;;;10101064;28;20047;-71
2023/06/09 06:30:44;;;;;;;10.00;7.97;;;;;;;;;;10103099;28;20528;-71
2023/06/09 06:35:40;;;;;;;8.90;7.43;;;;;;;;;;10103888;28;20055;-71
2023/06/09 06:40:36;;;;;;;11.18;8.05;;;;;;;;;;10106623;28;20586;-71
2023/06/09 06:45:33;;;;;;;10.60;7.78;;;;;;;;;;10100788;28;20121;-70
2023/06/09 06:50:29;;;;;;;12.00;7.28;;;;;;;;;;10079090;28;20062;-71
2023/06/09 06:55:26;;;;;;;11.02;7.28;;;;;;;;;;10101459;28;20059;-70
2023/06/09 07:00:27;;;;;;;10.18;7.60;;;;;;;;;;10104594;28;20054;-71
2023/06/09 07:05:25;;;;;;;11.80;7.63;;;;;;;;;;10100408;28;20046;-70
2023/06/09 07:10:21;;;;;;;10.35;7.32;;;;;;;;;;10087275;28;20184;-71
2023/06/09 07:15:17;;;;;;;13.15;7.47;;;;;;;;;;10106300;28;20643;-71
2023/06/09 07:20:14;;;;;;;9.48;7.72;;;;;;;;;;10094839;28;20043;-71
2023/06/09 07:25:11;;;;;;;10.40;8.63;;;;;;;;;;10105568;28;20051;-72
2023/06/09 07:30:08;;;;;;;9.73;8.13;;;;;;;;;;10094491;28;20059;-72
2023/06/09 07:35:12;;;;;;;10.45;8.40;;;;;;;;;;10106217;28;20055;-72
2023/06/09 07:40:09;;;;;;;12.00;8.93;;;;;;;;;;10097254;28;20070;-72
2023/06/09 07:45:15;;;;;;;7.85;7.05;;;;;;;;;;10102918;28;20050;-72
2023/06/09 07:55:25;;;;;;;11.38;7.18;;;;;;;;;;9932358;26;20039;-72
2023/06/09 08:00:24;;;;;;;10.05;7.30;;;;;;;;;;10085729;28;20089;-72
2023/06/09 08:05:24;;;;;;;8.77;7.57;;;;;;;;;;10111415;28;20078;-72
2023/06/09 08:10:20;;;;;;;9.88;8.80;;;;;;;;;;10113652;28;20058;-71
2023/06/09 08:15:16;;;;;;;9.13;8.00;;;;;;;;;;10098029;28;20054;-72
2023/06/09 08:20:13;;;;;;;9.23;7.63;;;;;;;;;;10088770;28;20045;-72
2023/06/09 08:25:12;;;;;;;14.38;7.72;;;;;;;;;;10078948;28;20050;-71
2023/06/09 08:30:08;;;;;;;11.95;7.82;;;;;;;;;;10087615;28;20073;-69
2023/06/09 08:35:06;;;;;;;8.45;7.13;;;;;;;;;;10094880;28;20046;-71
2023/06/09 08:40:05;;;;;;;10.85;7.90;;;;;;;;;;10097924;28;20134;-71
2023/06/09 08:45:04;;;;;;;8.45;7.53;;;;;;;;;;10099517;28;20413;-71
2023/06/09 08:50:06;;;;;;;11.65;7.90;;;;;;;;;;10101338;28;20050;-72
2023/06/09 08:55:03;;;;;;;8.43;7.55;;;;;;;;;;10095175;28;20054;-72
2023/06/09 09:00:00;;;;;;;8.00;7.03;;;;;;;;;;10095409;28;20062;-73
2023/06/09 09:04:56;;;;;;;8.35;7.47;;;;;;;;;;10094105;28;20106;-72
2023/06/09 09:09:53;;;;;;;10.65;7.97;;;;;;;;;;10094253;28;20047;-72
2023/06/09 09:14:49;;;;;;;9.98;7.20;;;;;;;;;;10093465;28;20094;-72
2023/06/09 09:19:49;;;;;;;11.23;7.70;;;;;;;;;;10092944;28;20520;-72
2023/06/09 09:24:47;;;;;;;8.13;7.15;;;;;;;;;;10077297;28;20043;-72
2023/06/09 09:29:44;;;;;;;8.55;7.22;;;;;;;;;;10093865;28;20050;-72
2023/06/09 09:34:41;;;;;;;15.07;7.22;;;;;;;;;;10095582;28;20043;-72
2023/06/09 09:39:51;;;;;;;7.68;6.82;;;;;;;;;;10098795;28;20456;-72
2023/06/09 09:44:50;;;;;;;8.23;6.70;;;;;;;;;;10092953;28;20078;-72
2023/06/09 09:49:50;;;;;;;9.85;7.43;;;;;;;;;;10074262;28;20513;-72
2023/06/09 09:54:46;;;;;;;11.88;8.13;;;;;;;;;;10095250;28;20046;-73
2023/06/09 09:59:43;;;;;;;8.25;7.20;;;;;;;;;;10086754;28;20509;-73
2023/06/09 10:04:39;;;;;;;8.60;6.80;;;;;;;;;;10086127;28;20159;-73
2023/06/09 10:09:36;;;;;;;10.68;6.38;;;;;;;;;;10102681;28;20525;-73
2023/06/09 10:14:33;;;;;;;7.90;7.03;;;;;;;;;;10100516;28;20051;-73
2023/06/09 10:19:30;;;;;;;9.68;6.95;;;;;;;;;;10081537;28;20055;-73
2023/06/09 10:24:27;;;;;;;8.15;7.38;;;;;;;;;;10086064;28;21252;-73
2023/06/09 10:29:25;;;;;;;8.93;7.75;;;;;;;;;;10074750;28;20043;-73
2023/06/09 10:34:21;;;;;;;13.10;9.05;;;;;;;;;;10096628;28;20058;-73
2023/06/09 10:39:19;;;;;;;9.02;7.80;;;;;;;;;;10080099;28;20047;-73
2023/06/09 10:44:24;;;;;;;9.32;7.53;;;;;;;;;;10085295;28;20050;-73
2023/06/09 10:49:37;;;;;;;8.77;7.80;;;;;;;;;;10100718;28;20034;-72
2023/06/09 10:54:35;;;;;;;9.85;8.20;;;;;;;;;;10061000;28;20058;-73
2023/06/09 10:59:36;;;;;;;9.13;7.70;;;;;;;;;;10090585;28;20043;-72
2023/06/09 11:04:44;;;;;;;8.07;7.30;;;;;;;;;;10090793;28;20062;-72
2023/06/09 11:09:47;;;;;;;8.25;7.47;;;;;;;;;;10092510;28;20047;-72
2023/06/09 11:14:44;;;;;;;8.95;8.13;;;;;;;;;;10084756;28;20425;-72
2023/06/09 11:19:41;;;;;;;10.85;9.73;;;;;;;;;;10081280;28;20069;-72
2023/06/09 11:24:47;;;;;;;7.35;6.65;;;;;;;;;;10081930;28;20113;-72
2023/06/09 11:30:02;;;;;;;10.40;7.60;;;;;;;;;;10077128;28;20520;-72
2023/06/09 11:34:59;;;;;;;7.40;6.80;;;;;;;;;;10093132;28;20457;-72
2023/06/09 11:39:56;;;;;;;8.30;7.50;;;;;;;;;;10080776;28;20051;-72
2023/06/09 11:44:52;;;;;;;8.65;7.20;;;;;;;;;;10087917;28;20047;-72
2023/06/09 11:49:57;;;;;;;10.38;7.32;;;;;;;;;;10072194;28;20561;-72
2023/06/09 11:54:54;;;;;;;8.30;7.43;;;;;;;;;;10080862;28;20051;-72
2023/06/09 11:59:50;;;;;;;8.00;7.05;;;;;;;;;;10086900;28;20082;-72
2023/06/09 12:04:48;;;;;;;29.30;24.48;;;;;;;;;;10085239;28;20812;-72
2023/06/09 12:09:53;;;;;;;8.77;7.55;;;;;;;;;;10089972;28;20497;-72
2023/06/09 12:14:49;;;;;;;65.68;51.55;;;;;;;;;;10082053;28;20102;-72
2023/06/09 12:19:46;;;;;;;18.75;16.58;;;;;;;;;;10094374;28;20047;-72
2023/06/09 12:24:45;;;;;;;8.48;7.15;;;;;;;;;;10077434;28;20074;-72
2023/06/09 12:29:42;;;;;;;14.77;13.18;;;;;;;;;;10089533;28;20065;-73
2023/06/09 12:34:39;;;;;;;11.85;9.45;;;;;;;;;;10090355;28;20145;-72
2023/06/09 12:39:35;;;;;;;8.32;7.03;;;;;;;;;;10094570;28;20046;-72
2023/06/09 12:44:31;;;;;;;9.45;7.38;;;;;;;;;;10073877;28;20468;-72
2023/06/09 12:49:29;;;;;;;6.63;5.97;;;;;;;;;;10089652;28;20044;-72
2023/06/09 12:54:29;;;;;;;9.80;6.32;;;;;;;;;;10089982;28;20039;-72
2023/06/09 12:59:25;;;;;;;14.70;13.20;;;;;;;;;;10097289;28;20510;-72
2023/06/09 13:04:22;;;;;;;14.68;12.93;;;;;;;;;;10084531;28;20501;-72
2023/06/09 13:09:18;;;;;;;7.22;6.60;;;;;;;;;;10087282;28;20058;-72
2023/06/09 13:14:14;;;;;;;7.10;6.20;;;;;;;;;;10089270;28;20544;-72
2023/06/09 13:19:11;;;;;;;6.50;5.80;;;;;;;;;;10083508;28;20039;-72
2023/06/09 13:24:07;;;;;;;6.30;5.70;;;;;;;;;;10100385;28;20426;-72
2023/06/09 13:29:04;;;;;;;9.70;7.85;;;;;;;;;;10089802;28;20138;-72
2023/06/09 13:34:00;;;;;;;6.85;6.15;;;;;;;;;;10095645;28;20054;-72
2023/06/09 13:38:56;;;;;;;8.82;6.00;;;;;;;;;;10087503;28;20520;-72
2023/06/09 13:43:53;;;;;;;9.05;8.00;;;;;;;;;;10089165;28;20058;-72
2023/06/09 13:48:49;;;;;;;8.32;6.28;;;;;;;;;;10083722;28;20129;-71
2023/06/09 13:53:48;;;;;;;8.13;7.18;;;;;;;;;;10104930;28;20134;-71
2023/06/09 13:58:45;;;;;;;9.57;6.18;;;;;;;;;;10099287;28;20043;-71
2023/06/09 14:03:42;;;;;;;7.22;6.53;;;;;;;;;;10101311;28;20047;-72
2023/06/09 14:08:41;;;;;;;6.72;6.13;;;;;;;;;;10096545;28;20055;-72
2023/06/09 14:13:37;;;;;;;7.10;6.35;;;;;;;;;;10099575;28;20110;-72
2023/06/09 14:18:34;;;;;;;7.65;6.18;;;;;;;;;;10087104;28;20168;-72
2023/06/09 14:23:31;;;;;;;6.68;5.90;;;;;;;;;;10096339;28;20460;-72
2023/06/09 14:28:31;;;;;;;9.23;6.75;;;;;;;;;;10096795;28;20051;-72
2023/06/09 14:33:27;;;;;;;7.03;6.30;;;;;;;;;;10085279;28;20510;-72
2023/06/09 14:38:24;;;;;;;6.53;5.85;;;;;;;;;;10083882;28;20516;-72
2023/06/09 14:43:20;;;;;;;6.47;5.82;;;;;;;;;;10089043;28;20066;-72
2023/06/09 14:48:17;;;;;;;7.20;6.50;;;;;;;;;;10091210;28;20047;-72
2023/06/09 14:53:14;;;;;;;7.45;6.57;;;;;;;;;;10078356;28;20148;-72
2023/06/09 14:58:11;;;;;;;9.43;6.38;;;;;;;;;;10096944;28;20046;-73
2023/06/09 15:03:08;;;;;;;8.55;5.72;;;;;;;;;;10097284;28;20666;-72
2023/06/09 15:08:05;;;;;;;6.97;5.82;;;;;;;;;;10091654;28;20202;-72
2023/06/09 15:13:03;;;;;;;7.25;6.45;;;;;;;;;;10100495;28;20049;-73
2023/06/09 15:18:00;;;;;;;6.68;5.95;;;;;;;;;;10100389;28;20505;-72
2023/06/09 15:22:57;;;;;;;6.43;5.80;;;;;;;;;;10096858;28;20081;-73
2023/06/09 15:27:59;;;;;;;12.43;9.50;;;;;;;;;;10083640;28;20090;-73
2023/06/09 15:33:00;;;;;;;11.20;8.90;;;;;;;;;;10093566;28;20409;-73
2023/06/09 15:38:01;;;;;;;6.40;5.80;;;;;;;;;;10085241;28;20109;-72
2023/06/09 15:42:58;;;;;;;10.45;6.65;;;;;;;;;;10070691;28;20739;-73
2023/06/09 15:47:55;;;;;;;9.43;6.82;;;;;;;;;;10089926;28;20062;-73
2023/06/09 15:52:51;;;;;;;8.63;6.30;;;;;;;;;;10088869;28;20651;-73
2023/06/09 15:57:47;;;;;;;9.70;6.93;;;;;;;;;;10097492;28;20062;-73
2023/06/09 16:02:44;;;;;;;8.25;6.40;;;;;;;;;;10095347;28;20078;-73
2023/06/09 16:07:40;;;;;;;12.77;8.35;;;;;;;;;;10090857;28;20506;-73
2023/06/09 16:12:37;;;;;;;11.13;7.25;;;;;;;;;;10100175;28;20078;-73
2023/06/09 16:17:33;;;;;;;11.10;7.75;;;;;;;;;;10102223;28;20081;-73
2023/06/09 16:22:29;;;;;;;8.45;6.60;;;;;;;;;;10094187;28;20047;-73
2023/06/09 16:27:26;;;;;;;9.95;7.68;;;;;;;;;;10093069;28;20074;-73
2023/06/09 16:32:22;;;;;;;8.20;6.20;;;;;;;;;;10098747;28;20540;-73
2023/06/09 16:37:19;;;;;;;7.65;6.95;;;;;;;;;;10105041;28;20127;-74
2023/06/09 16:42:15;;;;;;;12.80;9.32;;;;;;;;;;10080531;28;20067;-73
2023/06/09 16:47:11;;;;;;;9.05;7.38;;;;;;;;;;10085750;28;20055;-73
2023/06/09 16:52:08;;;;;;;15.02;9.15;;;;;;;;;;10088510;28;20058;-73
2023/06/09 16:57:04;;;;;;;11.63;8.57;;;;;;;;;;10085467;28;20120;-73
2023/06/09 17:02:01;;;;;;;10.95;7.75;;;;;;;;;;10087987;28;20154;-72
2023/06/09 17:06:57;;;;;;;9.77;6.95;;;;;;;;;;10080266;28;20148;-72
2023/06/09 17:11:54;;;;;;;10.27;7.13;;;;;;;;;;10080950;28;20080;-73
2023/06/09 17:16:50;;;;;;;9.50;7.22;;;;;;;;;;10079509;28;20946;-73
2023/06/09 17:21:46;;;;;;;9.50;6.93;;;;;;;;;;10086328;28;20095;-73
2023/06/09 17:26:43;;;;;;;12.25;7.03;;;;;;;;;;10087267;28;20054;-72
2023/06/09 17:31:40;;;;;;;8.68;6.40;;;;;;;;;;10078110;28;20688;-72
2023/06/09 17:36:36;;;;;;;12.93;7.63;;;;;;;;;;10108028;28;20398;-72
2023/06/09 17:41:33;;;;;;;13.05;9.00;;;;;;;;;;10109782;28;20448;-73
2023/06/09 17:46:30;;;;;;;10.18;6.75;;;;;;;;;;10097136;28;20043;-73
2023/06/09 17:51:27;;;;;;;9.98;7.80;;;;;;;;;;10091105;28;20047;-74
2023/06/09 17:56:23;;;;;;;9.95;8.10;;;;;;;;;;10094793;28;20497;-73
2023/06/09 18:01:20;;;;;;;7.88;7.07;;;;;;;;;;10087285;28;20073;-72
2023/06/09 18:06:19;;;;;;;8.30;7.18;;;;;;;;;;10086861;28;20479;-72
2023/06/09 18:11:16;;;;;;;8.23;6.63;;;;;;;;;;10090375;28;20137;-72
2023/06/09 18:16:12;;;;;;;11.32;7.35;;;;;;;;;;10096428;28;20744;-73
2023/06/09 18:21:09;;;;;;;7.68;6.75;;;;;;;;;;10087759;28;20565;-71
2023/06/09 18:26:05;;;;;;;9.13;6.35;;;;;;;;;;10099384;28;20047;-71
2023/06/09 18:31:02;;;;;;;7.40;6.30;;;;;;;;;;10096518;28;20042;-72
2023/06/09 18:35:58;;;;;;;7.18;5.30;;;;;;;;;;10086708;28;20573;-72
2023/06/09 18:40:55;;;;;;;8.90;5.88;;;;;;;;;;10092261;28;20042;-72
2023/06/09 18:45:51;;;;;;;7.63;6.40;;;;;;;;;;10098970;28;20038;-72
2023/06/09 18:50:48;;;;;;;8.80;6.13;;;;;;;;;;10086690;28;20122;-72
2023/06/09 18:55:44;;;;;;;10.43;6.22;;;;;;;;;;10096197;28;20055;-72
2023/06/09 19:00:40;;;;;;;8.43;5.60;;;;;;;;;;10074875;28;20054;-72
2023/06/09 19:05:37;;;;;;;8.15;5.85;;;;;;;;;;10096994;28;20050;-72
2023/06/09 19:10:33;;;;;;;7.63;5.20;;;;;;;;;;10096582;28;20051;-71
2023/06/09 19:15:30;;;;;;;7.50;5.55;;;;;;;;;;10090779;28;20205;-72
2023/06/09 19:20:27;;;;;;;6.97;5.38;;;;;;;;;;10100192;28;20085;-72
2023/06/09 19:25:24;;;;;;;11.52;6.30;;;;;;;;;;10096056;28;20075;-72
2023/06/09 19:30:20;;;;;;;7.20;5.38;;;;;;;;;;10076525;28;20071;-72
2023/06/09 19:35:18;;;;;;;10.80;6.28;;;;;;;;;;10089381;28;20047;-72
2023/06/09 19:40:14;;;;;;;10.38;5.75;;;;;;;;;;10094780;28;20137;-72
2023/06/09 19:45:11;;;;;;;11.60;6.10;;;;;;;;;;10100088;28;20134;-72
2023/06/09 19:50:08;;;;;;;8.55;5.30;;;;;;;;;;10097838;28;20043;-72
2023/06/09 19:55:04;;;;;;;10.80;5.55;;;;;;;;;;10093878;28;20058;-73
2023/06/09 20:00:05;;;;;;;14.07;7.40;;;;;;;;;;10100465;28;20504;-73
2023/06/09 20:05:02;;;;;;;8.25;5.38;;;;;;;;;;10095521;28;20057;-73
2023/06/09 20:10:01;;;;;;;16.48;6.07;;;;;;;;;;10094534;28;20039;-72
2023/06/09 20:14:57;;;;;;;13.00;6.03;;;;;;;;;;10096131;28;20054;-72
2023/06/09 20:19:55;;;;;;;10.20;6.10;;;;;;;;;;10101079;28;20039;-72
2023/06/09 20:24:51;;;;;;;12.15;6.30;;;;;;;;;;10103969;28;20105;-73
2023/06/09 20:29:48;;;;;;;10.27;6.13;;;;;;;;;;10089557;28;20054;-72
2023/06/09 20:34:44;;;;;;;12.20;6.13;;;;;;;;;;10094063;28;20497;-72
2023/06/09 20:39:41;;;;;;;9.43;5.72;;;;;;;;;;10097826;28;20150;-72
2023/06/09 20:44:38;;;;;;;12.00;6.30;;;;;;;;;;10096976;28;20121;-72
2023/06/09 20:49:35;;;;;;;11.45;6.28;;;;;;;;;;10097283;28;20081;-72
2023/06/09 20:54:35;;;;;;;10.70;6.07;;;;;;;;;;10098862;28;20714;-72
2023/06/09 20:59:31;;;;;;;8.80;5.85;;;;;;;;;;10107533;28;20062;-72
2023/06/09 21:04:30;;;;;;;10.40;6.15;;;;;;;;;;10104038;28;20468;-72
2023/06/09 21:09:26;;;;;;;10.93;6.38;;;;;;;;;;10098705;28;20047;-76
2023/06/09 21:14:24;;;;;;;11.45;6.60;;;;;;;;;;10096253;28;20043;-73
2023/06/09 21:19:20;;;;;;;11.65;6.32;;;;;;;;;;10095119;28;20050;-73
2023/06/09 21:24:17;;;;;;;11.07;6.25;;;;;;;;;;10087081;28;20086;-73
2023/06/09 21:29:13;;;;;;;15.75;7.82;;;;;;;;;;10100642;28;20513;-68
2023/06/09 21:34:10;;;;;;;12.15;7.30;;;;;;;;;;10097801;28;20043;-68
2023/06/09 21:39:06;;;;;;;10.85;8.23;;;;;;;;;;10091487;28;20058;-68
2023/06/09 21:44:03;;;;;;;10.60;8.05;;;;;;;;;;10090432;28;20063;-67
2023/06/09 21:48:59;;;;;;;12.07;7.93;;;;;;;;;;10086681;28;20047;-67
2023/06/09 21:53:56;;;;;;;9.80;8.23;;;;;;;;;;10096447;28;20105;-68
2023/06/09 21:58:52;;;;;;;16.05;9.70;;;;;;;;;;10094979;28;20571;-67
2023/06/09 22:03:48;;;;;;;15.07;8.85;;;;;;;;;;10104475;28;20138;-67
2023/06/09 22:08:45;;;;;;;17.17;10.55;;;;;;;;;;10099900;28;20047;-68
2023/06/09 22:13:41;;;;;;;14.73;10.30;;;;;;;;;;10093854;28;20059;-70
2023/06/09 22:18:37;;;;;;;11.82;8.93;;;;;;;;;;10093928;28;20058;-68
2023/06/09 22:23:34;;;;;;;10.60;7.97;;;;;;;;;;10104824;28;20058;-67
2023/06/09 22:28:30;;;;;;;11.00;9.07;;;;;;;;;;10095916;28;20038;-69
2023/06/09 22:33:28;;;;;;;10.13;8.13;;;;;;;;;;10083844;28;20051;-69
2023/06/09 22:38:24;;;;;;;11.52;8.32;;;;;;;;;;10091780;28;20420;-70
2023/06/09 22:43:21;;;;;;;10.90;8.98;;;;;;;;;;10095112;28;20509;-68
2023/06/09 22:48:19;;;;;;;11.45;9.00;;;;;;;;;;10096005;28;20039;-68
2023/06/09 22:53:15;;;;;;;12.88;9.65;;;;;;;;;;10085740;28;20047;-72
2023/06/09 22:58:12;;;;;;;12.75;8.55;;;;;;;;;;10090614;28;20050;-71
2023/06/09 23:03:08;;;;;;;13.82;8.80;;;;;;;;;;10099403;28;20105;-66
2023/06/09 23:08:05;;;;;;;12.82;9.85;;;;;;;;;;10091303;28;20519;-66
2023/06/09 23:13:01;;;;;;;16.55;11.05;;;;;;;;;;10088936;28;20063;-66
2023/06/09 23:17:58;;;;;;;10.48;9.00;;;;;;;;;;10084628;28;20098;-66
2023/06/09 23:22:59;;;;;;;12.27;9.77;;;;;;;;;;10094433;28;20097;-66
2023/06/09 23:27:55;;;;;;;8.65;7.85;;;;;;;;;;10095832;28;20101;-69
2023/06/09 23:32:51;;;;;;;10.73;8.70;;;;;;;;;;10092349;28;20085;-67
2023/06/09 23:37:52;;;;;;;9.57;8.05;;;;;;;;;;10068375;28;20055;-68
2023/06/09 23:42:48;;;;;;;13.98;9.38;;;;;;;;;;10047261;28;20051;-66
2023/06/09 23:47:45;;;;;;;8.98;8.10;;;;;;;;;;10065782;28;20046;-66
2023/06/09 23:52:41;;;;;;;13.18;9.85;;;;;;;;;;10061492;28;20050;-68
2023/06/09 23:57:37;;;;;;;11.85;8.63;;;;;;;;;;10055412;28;20063;-68
